createdAt,value
2023-03-18T00:00:09.788Z,15.00
2023-03-18T00:02:38.213Z,16.20
2023-03-18T00:05:08.798Z,15.53
2023-03-18T00:07:37.587Z,13.57
2023-03-18T00:10:06.523Z,10.77
2023-03-18T00:12:34.982Z,13.93
2023-03-18T00:15:03.046Z,12.97
2023-03-18T00:17:31.581Z,9.17
2023-03-18T00:20:05.894Z,10.10
2023-03-18T00:22:37.413Z,10.93
2023-03-18T00:25:07.228Z,12.47
2023-03-18T00:27:40.436Z,10.87
2023-03-18T00:30:09.859Z,10.57
2023-03-18T00:32:38.719Z,10.03
2023-03-18T00:35:07.604Z,12.53
2023-03-18T00:37:37.034Z,12.20
2023-03-18T00:40:08.061Z,11.77
2023-03-18T00:42:47.824Z,14.27
2023-03-18T00:45:17.490Z,15.70
2023-03-18T00:47:50.183Z,10.43
2023-03-18T00:50:18.834Z,13.63
2023-03-18T00:52:49.235Z,12.63
2023-03-18T00:55:17.338Z,14.33
2023-03-18T00:57:45.501Z,15.37
2023-03-18T01:00:17.103Z,16.37
2023-03-18T01:02:45.166Z,13.37
2023-03-18T01:05:14.164Z,16.13
2023-03-18T01:07:42.681Z,13.13
2023-03-18T01:10:14.469Z,13.03
2023-03-18T01:12:48.087Z,13.03
2023-03-18T01:15:23.307Z,12.43
2023-03-18T01:17:52.393Z,11.93
2023-03-18T01:20:21.689Z,13.43
2023-03-18T01:22:50.335Z,10.27
2023-03-18T01:25:20.370Z,13.73
2023-03-18T01:27:48.279Z,16.13
2023-03-18T01:30:18.185Z,14.97
2023-03-18T01:32:48.907Z,17.47
2023-03-18T01:35:17.964Z,15.27
2023-03-18T01:37:46.771Z,15.57
2023-03-18T01:40:18.621Z,13.27
2023-03-18T01:42:50.596Z,14.07
2023-03-18T01:45:28.562Z,15.40
2023-03-18T01:47:58.212Z,12.53
2023-03-18T01:50:29.810Z,15.33
2023-03-18T01:53:01.560Z,18.90
2023-03-18T01:55:33.377Z,15.27
2023-03-18T01:58:07.205Z,14.90
2023-03-18T02:00:37.228Z,17.47
2023-03-18T02:03:06.788Z,17.93
2023-03-18T02:05:37.115Z,18.43
2023-03-18T02:08:05.249Z,16.77
2023-03-18T02:10:33.700Z,14.60
2023-03-18T02:13:06.695Z,18.77
2023-03-18T02:15:39.295Z,14.50
2023-03-18T02:18:11.393Z,15.97
2023-03-18T02:20:48.454Z,16.27
2023-03-18T02:23:25.768Z,19.97
2023-03-18T02:25:59.898Z,15.60
2023-03-18T02:28:32.003Z,15.83
2023-03-18T02:31:02.662Z,18.37
2023-03-18T02:33:34.971Z,15.57
2023-03-18T02:36:07.000Z,16.87
2023-03-18T02:38:35.247Z,15.57
2023-03-18T02:41:03.175Z,18.20
2023-03-18T02:43:34.130Z,17.07
2023-03-18T02:46:29.797Z,23.37
2023-03-18T02:48:59.176Z,19.13
2023-03-18T02:51:27.884Z,15.30
2023-03-18T02:53:59.947Z,20.07
2023-03-18T02:56:28.118Z,20.07
2023-03-18T02:58:57.833Z,16.07
2023-03-18T03:01:26.066Z,15.43
2023-03-18T03:03:54.112Z,12.90
2023-03-18T03:06:22.097Z,16.80
2023-03-18T03:08:50.257Z,18.13
2023-03-18T03:11:19.611Z,17.50
2023-03-18T03:13:47.826Z,17.77
2023-03-18T03:16:18.799Z,16.80
2023-03-18T03:18:47.264Z,18.97
2023-03-18T03:21:17.033Z,14.57
2023-03-18T03:23:46.646Z,18.40
2023-03-18T03:26:15.435Z,15.63
2023-03-18T03:28:44.138Z,18.77
2023-03-18T03:31:12.198Z,16.47
2023-03-18T03:33:41.891Z,17.50
2023-03-18T03:36:13.429Z,22.57
2023-03-18T03:38:42.350Z,19.87
2023-03-18T03:41:11.709Z,17.80
2023-03-18T03:43:40.303Z,24.17
2023-03-18T03:46:09.366Z,22.10
2023-03-18T03:48:38.107Z,22.37
2023-03-18T03:51:07.550Z,28.60
2023-03-18T03:53:38.348Z,28.33
2023-03-18T03:56:09.152Z,30.77
2023-03-18T03:58:37.219Z,25.80
2023-03-18T04:01:06.459Z,29.57
2023-03-18T04:03:34.792Z,29.20
2023-03-18T04:06:02.768Z,24.73
2023-03-18T04:08:30.749Z,34.43
2023-03-18T04:11:00.258Z,36.80
2023-03-18T04:13:28.201Z,35.50
2023-03-18T04:15:56.412Z,36.13
2023-03-18T04:18:24.354Z,39.43
2023-03-18T04:20:52.354Z,44.33
2023-03-18T04:23:20.827Z,35.30
2023-03-18T04:25:48.820Z,41.13
2023-03-18T04:28:18.098Z,37.03
2023-03-18T04:30:46.052Z,35.27
2023-03-18T04:33:14.415Z,39.13
2023-03-18T04:35:43.590Z,34.77
2023-03-18T04:38:11.927Z,37.47
2023-03-18T04:40:39.883Z,44.97
2023-03-18T04:43:07.827Z,43.40
2023-03-18T04:45:37.197Z,44.57
2023-03-18T04:48:05.751Z,45.93
2023-03-18T04:50:34.400Z,41.03
2023-03-18T04:53:02.345Z,44.80
2023-03-18T04:55:30.736Z,50.27
2023-03-18T04:57:59.174Z,50.80
2023-03-18T05:00:27.790Z,46.00
2023-03-18T05:02:57.584Z,49.23
2023-03-18T05:05:25.551Z,46.47
2023-03-18T05:07:53.550Z,52.63
2023-03-18T05:10:21.805Z,50.87
2023-03-18T05:12:49.813Z,51.17
2023-03-18T05:15:17.966Z,47.23
2023-03-18T05:17:46.321Z,48.57
2023-03-18T05:20:15.954Z,51.63
2023-03-18T05:22:43.941Z,49.83
2023-03-18T05:25:12.719Z,47.73
2023-03-18T05:27:41.943Z,42.47
2023-03-18T05:30:12.464Z,46.90
2023-03-18T05:32:41.516Z,48.00
2023-03-18T05:35:10.666Z,44.43
2023-03-18T05:37:40.202Z,43.07
2023-03-18T05:40:11.577Z,37.50
2023-03-18T05:42:57.035Z,40.30
2023-03-18T05:45:25.394Z,39.87
2023-03-18T05:47:53.435Z,37.93
2023-03-18T05:50:30.487Z,39.83
2023-03-18T05:52:59.846Z,38.83
2023-03-18T05:55:28.448Z,33.07
2023-03-18T05:57:56.517Z,35.87
2023-03-18T06:00:25.256Z,32.67
2023-03-18T06:02:54.016Z,32.17
2023-03-18T06:05:22.893Z,31.63
2023-03-18T06:07:51.265Z,32.57
2023-03-18T06:10:20.766Z,32.00
2023-03-18T06:12:49.435Z,30.77
2023-03-18T06:15:17.673Z,30.03
2023-03-18T06:17:46.318Z,31.03
2023-03-18T06:20:15.712Z,32.87
2023-03-18T06:22:48.997Z,29.07
2023-03-18T06:25:20.944Z,27.90
2023-03-18T06:27:48.931Z,29.97
2023-03-18T06:30:17.659Z,26.47
2023-03-18T06:32:45.851Z,28.07
2023-03-18T06:35:14.702Z,28.87
2023-03-18T06:37:42.792Z,25.73
2023-03-18T06:40:12.214Z,26.53
2023-03-18T06:42:42.279Z,23.40
2023-03-18T06:45:11.058Z,28.50
2023-03-18T06:47:39.414Z,34.83
2023-03-18T06:50:07.755Z,31.17
2023-03-18T06:52:35.902Z,33.13
2023-03-18T06:55:04.098Z,29.37
2023-03-18T06:57:32.719Z,31.23
2023-03-18T07:00:02.150Z,30.53
2023-03-18T07:02:30.123Z,34.57
2023-03-18T07:05:00.210Z,32.83
2023-03-18T07:07:29.030Z,30.10
2023-03-18T07:09:56.971Z,28.43
2023-03-18T07:12:24.969Z,27.60
2023-03-18T07:14:53.609Z,29.20
2023-03-18T07:17:23.333Z,27.27
2023-03-18T07:19:51.852Z,28.43
2023-03-18T07:22:19.770Z,30.80
2023-03-18T07:24:47.857Z,28.50
2023-03-18T07:27:16.629Z,29.43
2023-03-18T07:29:44.771Z,26.77
2023-03-18T07:32:12.898Z,26.00
2023-03-18T07:34:42.567Z,33.07
2023-03-18T07:37:10.671Z,29.50
2023-03-18T07:39:38.963Z,34.40
2023-03-18T07:42:07.594Z,33.70
2023-03-18T07:44:36.707Z,30.30
2023-03-18T07:47:05.236Z,28.77
2023-03-18T07:49:33.182Z,28.60
2023-03-18T07:52:03.880Z,27.23
2023-03-18T07:54:32.038Z,30.73
2023-03-18T07:57:00.133Z,25.67
2023-03-18T07:59:28.193Z,27.90
2023-03-18T08:01:56.658Z,25.97
2023-03-18T08:04:25.192Z,25.50
2023-03-18T08:06:53.457Z,22.93
2023-03-18T08:09:23.127Z,22.13
2023-03-18T08:11:51.153Z,23.43
2023-03-18T08:14:19.165Z,20.17
2023-03-18T08:16:47.112Z,18.90
2023-03-18T08:19:15.093Z,17.90
2023-03-18T08:21:44.147Z,14.67
2023-03-18T08:24:12.116Z,18.83
2023-03-18T08:26:41.510Z,16.03
2023-03-18T08:29:09.768Z,13.57
2023-03-18T08:31:37.772Z,14.53
2023-03-18T08:34:05.922Z,12.37
2023-03-18T08:36:33.897Z,8.13
2023-03-18T08:39:01.854Z,9.63
2023-03-18T08:41:29.868Z,9.27
2023-03-18T08:43:59.796Z,12.17
2023-03-18T08:46:27.755Z,9.83
2023-03-18T08:48:56.122Z,9.30
2023-03-18T08:51:24.228Z,10.70
2023-03-18T08:53:52.482Z,8.93
2023-03-18T08:56:20.524Z,8.57
2023-03-18T08:58:49.284Z,10.50
2023-03-18T09:01:19.811Z,13.60
2023-03-18T09:03:47.945Z,8.67
2023-03-18T09:06:16.167Z,9.63
2023-03-18T09:08:44.962Z,9.00
2023-03-18T09:11:13.831Z,8.10
2023-03-18T09:13:41.927Z,9.67
2023-03-18T09:16:10.748Z,9.97
2023-03-18T09:18:42.778Z,12.07
2023-03-18T09:21:12.338Z,9.60
2023-03-18T09:23:40.350Z,9.83
2023-03-18T09:26:08.463Z,10.03
2023-03-18T09:28:36.438Z,11.13
2023-03-18T09:31:05.960Z,11.30
2023-03-18T09:33:34.229Z,7.37
2023-03-18T09:36:04.203Z,10.03
2023-03-18T09:38:32.638Z,11.77
2023-03-18T09:41:08.717Z,9.60
2023-03-18T09:43:57.290Z,9.67
2023-03-18T09:46:31.960Z,11.77
2023-03-18T09:49:39.880Z,9.10
2023-03-18T09:52:18.926Z,9.07
2023-03-18T09:54:54.493Z,12.43
2023-03-18T09:57:28.730Z,10.93
2023-03-18T10:00:05.199Z,7.40
2023-03-18T10:02:38.682Z,11.70
2023-03-18T10:05:14.949Z,9.50
2023-03-18T10:07:45.724Z,7.53
2023-03-18T10:10:23.460Z,10.73
2023-03-18T10:12:56.998Z,8.83
2023-03-18T10:15:32.667Z,6.07
2023-03-18T10:18:10.454Z,8.33
2023-03-18T10:20:48.330Z,9.10
2023-03-18T10:23:29.125Z,6.60
2023-03-18T10:26:00.117Z,8.80
2023-03-18T10:28:54.738Z,7.83
2023-03-18T10:31:35.271Z,6.37
2023-03-18T10:34:09.568Z,6.07
2023-03-18T10:36:44.962Z,5.33
2023-03-18T10:39:16.922Z,7.77
2023-03-18T10:41:49.961Z,3.43
2023-03-18T10:44:21.714Z,9.20
2023-03-18T10:46:58.506Z,6.37
2023-03-18T10:49:30.420Z,9.27
2023-03-18T10:52:06.077Z,3.97
2023-03-18T10:54:40.102Z,9.20
2023-03-18T10:57:10.585Z,5.73
2023-03-18T10:59:38.570Z,6.10
2023-03-18T11:02:15.576Z,5.63
2023-03-18T11:04:48.646Z,7.00
2023-03-18T11:07:21.117Z,5.87
2023-03-18T11:09:51.188Z,5.57
2023-03-18T11:12:23.794Z,5.63
2023-03-18T11:14:53.814Z,4.60
2023-03-18T11:17:23.992Z,6.07
2023-03-18T11:20:03.667Z,5.93
2023-03-18T11:22:33.152Z,5.07
2023-03-18T11:25:15.002Z,5.73
2023-03-18T11:27:47.198Z,8.10
2023-03-18T11:30:34.895Z,5.87
2023-03-18T11:33:14.126Z,5.90
2023-03-18T11:35:46.247Z,4.50
2023-03-18T11:38:23.023Z,6.47
2023-03-18T11:40:52.402Z,4.40
2023-03-18T11:43:25.597Z,7.27
2023-03-18T11:45:58.639Z,9.37
2023-03-18T11:48:32.177Z,7.53
2023-03-18T11:51:40.893Z,8.57
2023-03-18T11:54:21.534Z,3.80
2023-03-18T11:56:56.091Z,5.20
2023-03-18T11:59:42.040Z,3.47
2023-03-18T12:02:27.669Z,4.63
2023-03-18T12:05:31.584Z,5.17
2023-03-18T12:08:09.823Z,7.23
2023-03-18T12:10:41.764Z,3.47
2023-03-18T12:13:26.112Z,5.77
2023-03-18T12:16:03.809Z,6.10
2023-03-18T12:18:49.128Z,5.37
2023-03-18T12:21:31.711Z,5.20
2023-03-18T12:24:09.160Z,7.63
2023-03-18T12:26:45.911Z,6.10
2023-03-18T12:29:37.038Z,6.57
2023-03-18T12:32:14.326Z,7.47
2023-03-18T12:35:14.162Z,5.07
2023-03-18T12:37:59.661Z,7.27
2023-03-18T12:40:38.924Z,7.47
2023-03-18T12:43:32.871Z,5.77
2023-03-18T12:46:06.856Z,5.77
2023-03-18T12:48:44.149Z,5.27
2023-03-18T12:51:16.295Z,4.93
2023-03-18T12:53:47.391Z,3.83
2023-03-18T12:56:19.724Z,6.37
2023-03-18T12:58:52.253Z,4.70
2023-03-18T13:01:25.767Z,5.97
2023-03-18T13:03:58.365Z,6.53
2023-03-18T13:06:30.759Z,4.47
2023-03-18T13:09:06.611Z,7.70
2023-03-18T13:12:07.317Z,3.80
2023-03-18T13:14:48.346Z,6.93
2023-03-18T13:17:23.450Z,5.23
2023-03-18T13:19:51.736Z,6.47
2023-03-18T13:22:51.793Z,9.53
2023-03-18T13:25:28.940Z,6.40
2023-03-18T13:28:26.634Z,5.13
2023-03-18T13:31:04.738Z,8.13
2023-03-18T13:34:04.947Z,5.17
2023-03-18T13:36:59.158Z,6.30
2023-03-18T13:39:54.274Z,6.33
2023-03-18T13:42:25.922Z,9.40
2023-03-18T13:45:01.666Z,5.23
2023-03-18T13:47:32.800Z,6.90
2023-03-18T13:50:04.824Z,7.47
2023-03-18T13:52:44.045Z,6.37
2023-03-18T13:55:26.058Z,6.90
2023-03-18T13:57:58.240Z,4.60
2023-03-18T14:00:34.603Z,5.23
2023-03-18T14:03:17.678Z,6.13
2023-03-18T14:05:48.240Z,7.67
2023-03-18T14:08:46.481Z,4.73
2023-03-18T14:11:51.218Z,3.50
2023-03-18T14:14:54.871Z,6.43
2023-03-18T14:17:37.032Z,8.13
2023-03-18T14:20:22.810Z,6.27
2023-03-18T14:22:54.722Z,4.17
2023-03-18T14:25:43.091Z,4.87
2023-03-18T14:28:24.840Z,4.47
2023-03-18T14:31:21.027Z,4.23
2023-03-18T14:33:52.019Z,4.30
2023-03-18T14:36:30.151Z,9.00
2023-03-18T14:39:03.888Z,5.93
2023-03-18T14:41:34.841Z,4.87
2023-03-18T14:44:23.555Z,5.80
2023-03-18T14:46:55.697Z,4.30
2023-03-18T14:49:36.329Z,13.83
2023-03-18T14:52:10.467Z,5.37
2023-03-18T14:54:46.037Z,5.40
2023-03-18T14:57:14.167Z,6.50
2023-03-18T14:59:42.970Z,6.23
2023-03-18T15:02:22.651Z,5.03
2023-03-18T15:04:56.159Z,7.43
2023-03-18T15:07:34.095Z,8.27
2023-03-18T15:10:10.773Z,7.43
2023-03-18T15:12:38.749Z,6.53
2023-03-18T15:15:08.028Z,7.27
2023-03-18T15:17:36.238Z,7.00
2023-03-18T15:20:05.539Z,7.90
2023-03-18T15:22:35.537Z,7.70
2023-03-18T15:25:08.585Z,7.03
2023-03-18T15:27:38.107Z,6.77
2023-03-18T15:30:11.636Z,5.07
2023-03-18T15:32:46.074Z,7.53
2023-03-18T15:35:18.674Z,6.27
2023-03-18T15:37:48.101Z,8.40
2023-03-18T15:40:27.028Z,5.90
2023-03-18T15:42:56.652Z,4.60
2023-03-18T15:45:29.238Z,6.70
2023-03-18T15:47:59.431Z,7.50
2023-03-18T15:50:30.296Z,4.70
2023-03-18T15:53:21.504Z,8.67
2023-03-18T15:55:52.884Z,4.73
2023-03-18T15:58:26.404Z,6.17
2023-03-18T16:00:56.597Z,5.43
2023-03-18T16:03:27.644Z,4.87
2023-03-18T16:05:56.537Z,3.63
2023-03-18T16:08:25.315Z,5.27
2023-03-18T16:10:57.806Z,5.90
2023-03-18T16:13:30.360Z,5.87
2023-03-18T16:15:58.338Z,3.43
2023-03-18T16:18:27.167Z,3.77
2023-03-18T16:20:55.484Z,3.87
2023-03-18T16:23:24.161Z,5.73
2023-03-18T16:25:56.189Z,8.70
2023-03-18T16:28:26.189Z,5.60
2023-03-18T16:30:59.821Z,4.33
2023-03-18T16:33:27.897Z,4.93
2023-03-18T16:35:59.036Z,3.80
2023-03-18T16:38:28.376Z,5.33
2023-03-18T16:40:59.067Z,4.23
2023-03-18T16:43:29.098Z,5.10
2023-03-18T16:46:05.059Z,8.33
2023-03-18T16:48:33.232Z,4.73
2023-03-18T16:51:02.876Z,3.43
2023-03-18T16:53:33.211Z,6.43
2023-03-18T16:56:10.898Z,4.57
2023-03-18T16:58:39.119Z,4.37
2023-03-18T17:01:07.266Z,6.70
2023-03-18T17:03:36.105Z,6.83
2023-03-18T17:06:04.386Z,7.10
2023-03-18T17:08:32.310Z,5.93
2023-03-18T17:11:03.156Z,4.10
2023-03-18T17:13:33.936Z,4.90
2023-03-18T17:16:02.574Z,6.43
2023-03-18T17:18:30.993Z,5.33
2023-03-18T17:20:58.991Z,5.13
2023-03-18T17:23:28.657Z,5.70
2023-03-18T17:25:59.288Z,6.17
2023-03-18T17:28:36.661Z,7.23
2023-03-18T17:31:05.284Z,7.13
2023-03-18T17:33:35.679Z,4.03
2023-03-18T17:36:03.960Z,5.60
2023-03-18T17:38:32.500Z,6.97
2023-03-18T17:41:03.817Z,7.03
2023-03-18T17:43:36.129Z,5.60
2023-03-18T17:46:06.241Z,6.33
2023-03-18T17:48:35.602Z,5.67
2023-03-18T17:51:06.850Z,5.60
2023-03-18T17:53:37.371Z,4.13
2023-03-18T17:56:06.369Z,6.27
2023-03-18T17:58:36.044Z,7.23
2023-03-18T18:01:10.275Z,8.07
2023-03-18T18:03:40.712Z,4.90
2023-03-18T18:06:12.989Z,10.30
2023-03-18T18:08:42.616Z,9.90
2023-03-18T18:11:18.827Z,7.43
2023-03-18T18:13:51.453Z,9.33
2023-03-18T18:16:22.957Z,6.40
2023-03-18T18:18:51.838Z,8.23
2023-03-18T18:21:22.882Z,6.77
2023-03-18T18:23:51.363Z,8.10
2023-03-18T18:26:21.595Z,11.03
2023-03-18T18:28:53.794Z,7.97
2023-03-18T18:31:23.772Z,11.47
2023-03-18T18:33:52.580Z,8.93
2023-03-18T18:36:23.127Z,9.80
2023-03-18T18:38:52.703Z,7.37
2023-03-18T18:41:20.860Z,16.00
2023-03-18T18:43:50.472Z,8.73
2023-03-18T18:46:19.125Z,9.03
2023-03-18T18:48:49.873Z,9.53
2023-03-18T18:51:19.441Z,8.27
2023-03-18T18:53:49.268Z,8.87
2023-03-18T18:56:20.069Z,11.60
2023-03-18T18:58:51.126Z,7.93
2023-03-18T19:01:19.585Z,9.30
2023-03-18T19:03:50.361Z,7.90
2023-03-18T19:06:28.436Z,10.70
2023-03-18T19:08:58.824Z,14.03
2023-03-18T19:11:28.147Z,7.80
2023-03-18T19:14:17.354Z,7.83
2023-03-18T19:16:46.009Z,7.80
2023-03-18T19:19:15.485Z,8.97
2023-03-18T19:21:44.796Z,8.70
2023-03-18T19:24:27.570Z,10.77
2023-03-18T19:26:57.636Z,6.83
2023-03-18T19:29:27.269Z,10.57
2023-03-18T19:31:56.236Z,11.13
2023-03-18T19:34:24.622Z,12.77
2023-03-18T19:36:54.819Z,11.30
2023-03-18T19:39:24.854Z,7.97
2023-03-18T19:41:52.961Z,11.23
2023-03-18T19:44:22.823Z,9.77
2023-03-18T19:46:54.861Z,8.00
2023-03-18T19:49:27.013Z,7.87
2023-03-18T19:51:55.939Z,8.20
2023-03-18T19:54:28.145Z,8.67
2023-03-18T19:56:57.111Z,10.23
2023-03-18T19:59:33.503Z,10.57
2023-03-18T20:02:20.171Z,9.10
2023-03-18T20:04:49.417Z,13.43
2023-03-18T20:07:18.499Z,14.47
2023-03-18T20:09:46.827Z,13.20
2023-03-18T20:12:22.290Z,13.13
2023-03-18T20:14:50.557Z,14.93
2023-03-18T20:17:41.473Z,14.00
2023-03-18T20:20:16.408Z,11.37
2023-03-18T20:22:48.093Z,10.03
2023-03-18T20:25:22.543Z,15.17
2023-03-18T20:27:53.454Z,26.90
2023-03-18T20:30:25.689Z,29.60
2023-03-18T20:32:55.039Z,25.80
2023-03-18T20:35:24.854Z,30.20
2023-03-18T20:37:57.825Z,27.97
2023-03-18T20:40:31.482Z,24.37
2023-03-18T20:42:59.554Z,12.73
2023-03-18T20:45:27.835Z,10.97
2023-03-18T20:47:57.856Z,11.80
2023-03-18T20:50:29.930Z,10.93
2023-03-18T20:52:58.639Z,7.27
2023-03-18T20:55:30.665Z,8.97
2023-03-18T20:57:59.375Z,8.43
2023-03-18T21:00:29.441Z,9.17
2023-03-18T21:03:00.078Z,11.13
2023-03-18T21:05:28.288Z,7.40
2023-03-18T21:07:56.573Z,6.07
2023-03-18T21:10:27.177Z,8.67
2023-03-18T21:12:55.513Z,8.47
2023-03-18T21:15:31.700Z,7.97
2023-03-18T21:18:08.291Z,9.77
2023-03-18T21:20:36.738Z,7.73
2023-03-18T21:23:04.728Z,7.77
2023-03-18T21:25:33.283Z,8.93
2023-03-18T21:28:03.996Z,12.57
2023-03-18T21:30:32.108Z,7.27
2023-03-18T21:33:01.531Z,6.53
2023-03-18T21:35:31.155Z,5.70
2023-03-18T21:38:00.400Z,6.97
2023-03-18T21:40:28.436Z,5.93
2023-03-18T21:42:56.442Z,8.27
2023-03-18T21:45:24.666Z,6.17
2023-03-18T21:47:53.471Z,6.33
2023-03-18T21:50:26.122Z,8.87
2023-03-18T21:52:54.877Z,5.17
2023-03-18T21:55:23.575Z,8.33
2023-03-18T21:57:51.579Z,5.63
2023-03-18T22:00:21.153Z,7.57
2023-03-18T22:02:49.432Z,7.80
2023-03-18T22:05:21.846Z,8.37
2023-03-18T22:07:51.903Z,8.50
2023-03-18T22:10:23.113Z,11.50
2023-03-18T22:12:51.520Z,10.03
2023-03-18T22:15:37.723Z,7.00
2023-03-18T22:18:07.222Z,9.67
2023-03-18T22:20:36.368Z,7.33
2023-03-18T22:23:13.920Z,6.93
2023-03-18T22:25:41.972Z,8.00
2023-03-18T22:28:11.554Z,9.17
2023-03-18T22:30:42.323Z,6.93
2023-03-18T22:33:19.517Z,7.83
2023-03-18T22:35:47.796Z,7.10
2023-03-18T22:38:19.268Z,7.57
2023-03-18T22:40:49.386Z,8.90
2023-03-18T22:43:29.984Z,7.67
2023-03-18T22:45:58.921Z,6.10
2023-03-18T22:48:27.264Z,7.00
2023-03-18T22:50:56.001Z,7.63
2023-03-18T22:53:28.471Z,9.13
2023-03-18T22:55:57.587Z,7.03
2023-03-18T22:58:27.157Z,8.80
2023-03-18T23:00:55.972Z,7.17
2023-03-18T23:03:26.653Z,8.67
2023-03-18T23:05:56.907Z,6.67
2023-03-18T23:08:27.619Z,6.30
2023-03-18T23:10:59.858Z,7.23
2023-03-18T23:13:30.221Z,8.20
2023-03-18T23:15:59.031Z,7.17
2023-03-18T23:18:26.973Z,5.20
2023-03-18T23:20:55.200Z,7.33
2023-03-18T23:23:23.416Z,6.70
2023-03-18T23:25:53.360Z,7.63
2023-03-18T23:28:21.426Z,8.47
2023-03-18T23:30:52.419Z,7.33
2023-03-18T23:33:20.620Z,8.90
2023-03-18T23:35:49.099Z,8.33
2023-03-18T23:38:17.321Z,6.93
2023-03-18T23:40:45.375Z,5.70
2023-03-18T23:43:14.687Z,6.10
2023-03-18T23:45:42.966Z,8.10
2023-03-18T23:48:11.130Z,8.50
2023-03-18T23:50:39.337Z,7.70
2023-03-18T23:53:07.301Z,6.00
2023-03-18T23:55:36.026Z,6.53
2023-03-18T23:58:04.831Z,7.57
